Portada
METAR-TAF:

METAR-TAF

Aeropuertos :

Colmenar Viejo, España

latitud: 40-39N, longitud: 003-44W, altitud: -999 m

Observación

El informe se hizo hace 10 horas y 33 minutos, a las 18:00 UTC
Viento 8 kt del sur-suroeste
Temperatura 28°C
Humedad 14%
Presión 1014 hPa
Visibilidad 10 km o más
Escasas nubes a una altura de 6000 ft

METAR: LECV 201800Z 21008KT 9999 FEW060 28/M02 Q1014

Hora: 06:33 (04:33 UTC)

Pronóstico

El informe se hizo hace 11 horas y 33 minutos, a las 17:00 UTC
Pronóstico válido del 20 a las 18 UTC al 21 a las 03 UTC
Viento 5 kt con dirección variable
Visibilidad 10 km o más
sin nubes por debajo de 1500 m y sin presencia de cumulonimbus.
Probabilidad 30% :
Temporalmente
del 20 a las 18 UTC al 20 a las 20 UTC
Viento 10 kt del suroeste

TAF: LECV 201700Z 2018/2103 VRB05KT CAVOK PROB30 TEMPO 2018/2020 23010KT

Observaciones y pronósticos meteorológicos de más de 4000 aeropuertos (mensajes METAR y TAF).

Los puntos amarillos y rojos representan las estaciones disponibles.

Ponga el ratón en el punto deseado para ver el nombre de la estación.

Haga clic para ver las observaciones y los pronósticos meteorológicos.

Para cambiar el mapa : haga clic en los botones verdes con una cruz de color negro para hacer un zoom, en el botón verde con un guión para alejar o en las flechas verdes para mapas adyacentes.


METAR-TAF: